Thunder radar more information blitzortung!


Radar de pluja more information rain snow radar


Visita la nostra xarxa de llocs de meteo:

Template documentation
and downloads

And another site



No particular awareness of the weather is required.    There are no Weather-warnings

Pagina Historial Weather Underground text

Diari Resum Setembre 27, 2017 Unitats:  Tant    Imperial   Mètric
« Previous Dia
SegĂźent Dia »
Diari Setmana Mensual Anual Personalitzada
  Maxima: Minima: Media:
Temperatura: 79.2 °F /  26.2 °C 59 °F /  15.0 °C 70 °F /  21.1 °C
Punt de rosada: 61 °F /  16.1 °C 53.4 °F /  11.9 °C 56.8 °F /  13.8 °C
Humitat: 84 % 50 % 64 %
Wind Speed: 12.7 mph /  20.4 km/h - 3.6 mph /  5.8 km/h
RĂ fegues de vent: 12.7 mph /  20.4 km/h - -
Vent:- - SSW
Pression baro: 30.2 in /  1023.9 hPa 30.1 in /  1019.9 hPa -
Precipitacions: 0 in /  0.0 mm    
Historical Graphs
 
 
Dades de taula per Setembre 27, 2017
Temps Temperatura Punt de rosada Pression baro Vent Wind Speed RĂ fegues de vent Humitat Rainfall Rate (Hourly)
00:02 66.6 °F /  19.2 °C 56.5 °F /  13.6 °C 30.2 in /  1022.9 hPa WSW 2.3 mph /  3.7 km/h 2.3 mph /  3.7 km/h 70 % 0 in /  0.0 mm
00:05 61.3 °F /  16.3 °C 54.3 °F /  12.4 °C 30.2 in /  1021.9 hPa Calm   2 mph /  3.2 km/h 78 % 0 in /  0.0 mm
00:07 66.6 °F /  19.2 °C 56.5 °F /  13.6 °C 30.2 in /  1022.9 hPa WSW 1.2 mph /  1.9 km/h   70 % 0 in /  0.0 mm
00:12 66.6 °F /  19.2 °C 56.5 °F /  13.6 °C 30.2 in /  1022.9 hPa SW 1.4 mph /  2.3 km/h 1.4 mph /  2.3 km/h 70 % 0 in /  0.0 mm
00:15 61.2 °F /  16.2 °C 54.7 °F /  12.6 °C 30.2 in /  1022.9 hPa Calm     79 % 0 in /  0.0 mm
00:25 61 °F /  16.1 °C 54.3 °F /  12.4 °C 30.2 in /  1022.9 hPa Calm     79 % 0 in /  0.0 mm
00:35 60.6 °F /  15.9 °C 54.1 °F /  12.3 °C 30.2 in /  1022.9 hPa South 1 mph /  1.6 km/h 2 mph /  3.2 km/h 79 % 0 in /  0.0 mm
00:45 60.3 °F /  15.7 °C 53.8 °F /  12.1 °C 30.2 in /  1022.9 hPa SW 2 mph /  3.2 km/h 2 mph /  3.2 km/h 79 % 0 in /  0.0 mm
00:55 60.1 °F /  15.6 °C 54 °F /  12.2 °C 30.2 in /  1022.9 hPa Calm     80 % 0 in /  0.0 mm
01:05 59.9 °F /  15.5 °C 54.1 °F /  12.3 °C 30.2 in /  1022.9 hPa Calm     81 % 0 in /  0.0 mm
01:15 59.7 °F /  15.4 °C 54 °F /  12.2 °C 30.2 in /  1022.9 hPa Calm   1 mph /  1.6 km/h 81 % 0 in /  0.0 mm
01:25 59.7 °F /  15.4 °C 54.1 °F /  12.3 °C 30.2 in /  1022.9 hPa Calm     82 % 0 in /  0.0 mm
01:35 59.5 °F /  15.3 °C 54 °F /  12.2 °C 30.2 in /  1022.9 hPa Calm     82 % 0 in /  0.0 mm
01:45 59.4 °F /  15.2 °C 54 °F /  12.2 °C 30.2 in /  1022.9 hPa WSW 1 mph /  1.6 km/h 2 mph /  3.2 km/h 82 % 0 in /  0.0 mm
01:55 59 °F /  15.0 °C 53.4 °F /  11.9 °C 30.2 in /  1021.9 hPa Calm   1 mph /  1.6 km/h 82 % 0 in /  0.0 mm
02:05 59 °F /  15.0 °C 53.8 °F /  12.1 °C 30.2 in /  1021.9 hPa SW 1 mph /  1.6 km/h 2 mph /  3.2 km/h 83 % 0 in /  0.0 mm
02:15 59.2 °F /  15.1 °C 54 °F /  12.2 °C 30.2 in /  1021.9 hPa Calm     83 % 0 in /  0.0 mm
02:25 59 °F /  15.0 °C 53.8 °F /  12.1 °C 30.2 in /  1022.9 hPa Calm     83 % 0 in /  0.0 mm
02:35 59 °F /  15.0 °C 53.8 °F /  12.1 °C 30.2 in /  1022.9 hPa Calm     83 % 0 in /  0.0 mm
02:45 59 °F /  15.0 °C 53.8 °F /  12.1 °C 30.2 in /  1022.9 hPa Calm     83 % 0 in /  0.0 mm
02:55 59 °F /  15.0 °C 54.1 °F /  12.3 °C 30.2 in /  1022.9 hPa Calm   1 mph /  1.6 km/h 84 % 0 in /  0.0 mm
03:05 59 °F /  15.0 °C 54.1 °F /  12.3 °C 30.2 in /  1022.9 hPa Calm     84 % 0 in /  0.0 mm
03:15 59.2 °F /  15.1 °C 54.3 °F /  12.4 °C 30.2 in /  1022.9 hPa NE 1 mph /  1.6 km/h 1 mph /  1.6 km/h 84 % 0 in /  0.0 mm
03:25 59.7 °F /  15.4 °C 54.9 °F /  12.7 °C 30.2 in /  1022.9 hPa Calm     84 % 0 in /  0.0 mm
03:35 59.9 °F /  15.5 °C 55 °F /  12.8 °C 30.2 in /  1022.9 hPa NE 1 mph /  1.6 km/h 2 mph /  3.2 km/h 84 % 0 in /  0.0 mm
03:45 60.1 °F /  15.6 °C 55.2 °F /  12.9 °C 30.2 in /  1023.9 hPa Calm   1 mph /  1.6 km/h 84 % 0 in /  0.0 mm
03:55 59.9 °F /  15.5 °C 54.7 °F /  12.6 °C 30.2 in /  1023.9 hPa Calm     83 % 0 in /  0.0 mm
04:05 59.5 °F /  15.3 °C 54.3 °F /  12.4 °C 30.2 in /  1023.9 hPa NE 1 mph /  1.6 km/h 2 mph /  3.2 km/h 83 % 0 in /  0.0 mm
04:15 59.5 °F /  15.3 °C 54.3 °F /  12.4 °C 30.2 in /  1023.9 hPa Calm   1 mph /  1.6 km/h 83 % 0 in /  0.0 mm
04:25 59.7 °F /  15.4 °C 54.5 °F /  12.5 °C 30.2 in /  1023.9 hPa WSW 1 mph /  1.6 km/h 2 mph /  3.2 km/h 83 % 0 in /  0.0 mm
04:35 60.4 °F /  15.8 °C 55.6 °F /  13.1 °C 30.2 in /  1023.9 hPa Calm   1 mph /  1.6 km/h 84 % 0 in /  0.0 mm
04:45 60.8 °F /  16.0 °C 55.6 °F /  13.1 °C 30.2 in /  1023.9 hPa ENE 2 mph /  3.2 km/h 3 mph /  4.8 km/h 83 % 0 in /  0.0 mm
04:55 63 °F /  17.2 °C 57.4 °F /  14.1 °C 30.2 in /  1023.9 hPa ENE 2 mph /  3.2 km/h 2 mph /  3.2 km/h 82 % 0 in /  0.0 mm
05:05 64.4 °F /  18.0 °C 58.1 °F /  14.5 °C 30.2 in /  1023.9 hPa Calm   2 mph /  3.2 km/h 80 % 0 in /  0.0 mm
05:15 64.9 °F /  18.3 °C 57.9 °F /  14.4 °C 30.2 in /  1023.9 hPa ENE 1 mph /  1.6 km/h 2 mph /  3.2 km/h 78 % 0 in /  0.0 mm
05:25 66.6 °F /  19.2 °C 59.2 °F /  15.1 °C 30.2 in /  1023.9 hPa Calm   2 mph /  3.2 km/h 77 % 0 in /  0.0 mm
05:35 67.3 °F /  19.6 °C 59.5 °F /  15.3 °C 30.2 in /  1023.9 hPa South 1 mph /  1.6 km/h 2 mph /  3.2 km/h 76 % 0 in /  0.0 mm
05:45 68.5 °F /  20.3 °C 59.5 °F /  15.3 °C 30.2 in /  1023.9 hPa SSW 1 mph /  1.6 km/h 2 mph /  3.2 km/h 73 % 0 in /  0.0 mm
05:55 69.4 °F /  20.8 °C 60.1 °F /  15.6 °C 30.2 in /  1022.9 hPa South 1 mph /  1.6 km/h 3 mph /  4.8 km/h 72 % 0 in /  0.0 mm
06:05 70.5 °F /  21.4 °C 60.6 °F /  15.9 °C 30.2 in /  1022.9 hPa SSW 2 mph /  3.2 km/h 3 mph /  4.8 km/h 71 % 0 in /  0.0 mm
06:15 70.9 °F /  21.6 °C 60.6 °F /  15.9 °C 30.2 in /  1023.9 hPa SW 2 mph /  3.2 km/h 4 mph /  6.4 km/h 70 % 0 in /  0.0 mm
11:15 71.2 °F /  21.8 °C 60.4 °F /  15.8 °C 30.2 in /  1023.9 hPa West 3.6 mph /  5.8 km/h 3.6 mph /  5.8 km/h 69 % 0 in /  0.0 mm
11:20 71.4 °F /  21.9 °C 60.6 °F /  15.9 °C 30.2 in /  1023.9 hPa South 3.5 mph /  5.6 km/h 3.5 mph /  5.6 km/h 69 % 0 in /  0.0 mm
11:25 72 °F /  22.2 °C 60.4 °F /  15.8 °C 30.2 in /  1023.9 hPa South 3.8 mph /  6.1 km/h 3.8 mph /  6.1 km/h 67 % 0 in /  0.0 mm
11:30 72.1 °F /  22.3 °C 60.3 °F /  15.7 °C 30.2 in /  1023.9 hPa WSW 4.6 mph /  7.4 km/h 4.6 mph /  7.4 km/h 66 % 0 in /  0.0 mm
11:35 73.4 °F /  23.0 °C 60.4 °F /  15.8 °C 30.2 in /  1023.9 hPa SSW 2.4 mph /  3.9 km/h 2.4 mph /  3.9 km/h 64 % 0 in /  0.0 mm
11:40 73.4 °F /  23.0 °C 61 °F /  16.1 °C 30.2 in /  1023.9 hPa ENE 2.3 mph /  3.7 km/h 2.3 mph /  3.7 km/h 65 % 0 in /  0.0 mm
11:45 73.9 °F /  23.3 °C 61 °F /  16.1 °C 30.2 in /  1023.9 hPa WSW 2.9 mph /  4.7 km/h 2.9 mph /  4.7 km/h 64 % 0 in /  0.0 mm
11:50 74.1 °F /  23.4 °C 60.6 °F /  15.9 °C 30.2 in /  1023.9 hPa South 4.6 mph /  7.4 km/h 4.6 mph /  7.4 km/h 63 % 0 in /  0.0 mm
11:55 73.9 °F /  23.3 °C 60.4 °F /  15.8 °C 30.2 in /  1023.9 hPa WSW 5.8 mph /  9.3 km/h 5.8 mph /  9.3 km/h 63 % 0 in /  0.0 mm
12:00 73.8 °F /  23.2 °C 59.9 °F /  15.5 °C 30.2 in /  1023.9 hPa West 3.5 mph /  5.6 km/h 3.5 mph /  5.6 km/h 62 % 0 in /  0.0 mm
12:05 75 °F /  23.9 °C 60.3 °F /  15.7 °C 30.2 in /  1023.9 hPa SSW 3.5 mph /  5.6 km/h 3.5 mph /  5.6 km/h 60 % 0 in /  0.0 mm
12:10 76.5 °F /  24.7 °C 60.1 °F /  15.6 °C 30.2 in /  1023.9 hPa SSE 4.6 mph /  7.4 km/h 4.6 mph /  7.4 km/h 57 % 0 in /  0.0 mm
12:11 76.5 °F /  24.7 °C 60.1 °F /  15.6 °C 30.2 in /  1023.9 hPa South 4.6 mph /  7.4 km/h 4.6 mph /  7.4 km/h 57 % 0 in /  0.0 mm
12:16 75.6 °F /  24.2 °C 58.8 °F /  14.9 °C 30.2 in /  1023.9 hPa SSE 10 mph /  16.1 km/h 10 mph /  16.1 km/h 56 % 0 in /  0.0 mm
12:21 75.7 °F /  24.3 °C 59.9 °F /  15.5 °C 30.2 in /  1023.9 hPa West 2.3 mph /  3.7 km/h 2.3 mph /  3.7 km/h 58 % 0 in /  0.0 mm
12:26 75.7 °F /  24.3 °C 59.9 °F /  15.5 °C 30.2 in /  1023.9 hPa South 3.5 mph /  5.6 km/h 3.5 mph /  5.6 km/h 58 % 0 in /  0.0 mm
12:31 75.9 °F /  24.4 °C 59.2 °F /  15.1 °C 30.2 in /  1023.9 hPa South 6.9 mph /  11.1 km/h 6.9 mph /  11.1 km/h 56 % 0 in /  0.0 mm
12:36 75.7 °F /  24.3 °C 58.8 °F /  14.9 °C 30.2 in /  1022.9 hPa West 6.9 mph /  11.1 km/h 6.9 mph /  11.1 km/h 56 % 0 in /  0.0 mm
12:41 75.2 °F /  24.0 °C 58.5 °F /  14.7 °C 30.2 in /  1022.9 hPa SW 4.6 mph /  7.4 km/h 4.6 mph /  7.4 km/h 56 % 0 in /  0.0 mm
12:46 75.4 °F /  24.1 °C 58.6 °F /  14.8 °C 30.2 in /  1022.9 hPa SW 3.5 mph /  5.6 km/h 3.5 mph /  5.6 km/h 56 % 0 in /  0.0 mm
12:51 76.1 °F /  24.5 °C 59.4 °F /  15.2 °C 30.2 in /  1022.9 hPa WNW 3.5 mph /  5.6 km/h 3.5 mph /  5.6 km/h 56 % 0 in /  0.0 mm
12:56 76.8 °F /  24.9 °C 58.8 °F /  14.9 °C 30.2 in /  1022.9 hPa SW 2.3 mph /  3.7 km/h 2.3 mph /  3.7 km/h 54 % 0 in /  0.0 mm
13:01 77.5 °F /  25.3 °C 59.2 °F /  15.1 °C 30.2 in /  1022.9 hPa SSE 3.6 mph /  5.8 km/h 3.6 mph /  5.8 km/h 53 % 0 in /  0.0 mm
13:06 77.7 °F /  25.4 °C 59.2 °F /  15.1 °C 30.2 in /  1022.9 hPa ESE 5.8 mph /  9.3 km/h 5.8 mph /  9.3 km/h 53 % 0 in /  0.0 mm
13:11 78.1 °F /  25.6 °C 58.5 °F /  14.7 °C 30.2 in /  1022.9 hPa SE 4.6 mph /  7.4 km/h 4.6 mph /  7.4 km/h 51 % 0 in /  0.0 mm
13:16 78.4 °F /  25.8 °C 58.8 °F /  14.9 °C 30.2 in /  1022.9 hPa SE 3.5 mph /  5.6 km/h 3.5 mph /  5.6 km/h 51 % 0 in /  0.0 mm
13:21 79.2 °F /  26.2 °C 58.8 °F /  14.9 °C 30.2 in /  1021.9 hPa SW 6.2 mph /  10.0 km/h 6.2 mph /  10.0 km/h 50 % 0 in /  0.0 mm
13:26 77.9 °F /  25.5 °C 58.3 °F /  14.6 °C 30.2 in /  1021.9 hPa SSW 4.7 mph /  7.6 km/h 4.7 mph /  7.6 km/h 51 % 0 in /  0.0 mm
13:27 77.9 °F /  25.5 °C 57.7 °F /  14.3 °C 30.2 in /  1021.9 hPa SE 3.3 mph /  5.3 km/h 3.3 mph /  5.3 km/h 50 % 0 in /  0.0 mm
13:32 77.5 °F /  25.3 °C 57.9 °F /  14.4 °C 30.2 in /  1022.9 hPa South 4.6 mph /  7.4 km/h 4.6 mph /  7.4 km/h 51 % 0 in /  0.0 mm
13:37 77 °F /  25.0 °C 57.6 °F /  14.2 °C 30.2 in /  1022.9 hPa WNW 4.6 mph /  7.4 km/h 4.6 mph /  7.4 km/h 51 % 0 in /  0.0 mm
13:42 76.3 °F /  24.6 °C 57.4 °F /  14.1 °C 30.2 in /  1022.9 hPa SSW 3.5 mph /  5.6 km/h 3.5 mph /  5.6 km/h 52 % 0 in /  0.0 mm
13:47 76.1 °F /  24.5 °C 57.2 °F /  14.0 °C 30.2 in /  1021.9 hPa South 2.3 mph /  3.7 km/h 2.3 mph /  3.7 km/h 52 % 0 in /  0.0 mm
13:52 76.1 °F /  24.5 °C 57.2 °F /  14.0 °C 30.2 in /  1021.9 hPa SSW 2.4 mph /  3.9 km/h 2.4 mph /  3.9 km/h 52 % 0 in /  0.0 mm
13:57 75.9 °F /  24.4 °C 57.6 °F /  14.2 °C 30.2 in /  1021.9 hPa SSE 2.3 mph /  3.7 km/h 2.3 mph /  3.7 km/h 53 % 0 in /  0.0 mm
14:02 75.6 °F /  24.2 °C 57.2 °F /  14.0 °C 30.2 in /  1022.9 hPa WSW 4.6 mph /  7.4 km/h 4.6 mph /  7.4 km/h 53 % 0 in /  0.0 mm
14:07 75.4 °F /  24.1 °C 56.5 °F /  13.6 °C 30.2 in /  1022.9 hPa South 2.4 mph /  3.9 km/h 2.4 mph /  3.9 km/h 52 % 0 in /  0.0 mm
14:12 75.2 °F /  24.0 °C 56.8 °F /  13.8 °C 30.2 in /  1022.9 hPa West 2.3 mph /  3.7 km/h 2.3 mph /  3.7 km/h 53 % 0 in /  0.0 mm
14:17 75.2 °F /  24.0 °C 56.8 °F /  13.8 °C 30.2 in /  1021.9 hPa ESE 2 mph /  3.2 km/h 2.2 mph /  3.5 km/h 53 % 0 in /  0.0 mm
14:22 74.5 °F /  23.6 °C 57.4 °F /  14.1 °C 30.2 in /  1021.9 hPa ESE 6 mph /  9.7 km/h 6 mph /  9.7 km/h 55 % 0 in /  0.0 mm
14:27 73.8 °F /  23.2 °C 57 °F /  13.9 °C 30.2 in /  1021.9 hPa ENE 6.9 mph /  11.1 km/h 6.9 mph /  11.1 km/h 56 % 0 in /  0.0 mm
14:32 73 °F /  22.8 °C 56.5 °F /  13.6 °C 30.2 in /  1022.9 hPa ESE 9.2 mph /  14.8 km/h 9.2 mph /  14.8 km/h 56 % 0 in /  0.0 mm
14:37 73 °F /  22.8 °C 56.8 °F /  13.8 °C 30.2 in /  1022.9 hPa East 7.4 mph /  11.9 km/h 7.4 mph /  11.9 km/h 57 % 0 in /  0.0 mm
14:42 72.7 °F /  22.6 °C 57 °F /  13.9 °C 30.2 in /  1022.9 hPa East 6.9 mph /  11.1 km/h 6.9 mph /  11.1 km/h 58 % 0 in /  0.0 mm
14:47 72.7 °F /  22.6 °C 57 °F /  13.9 °C 30.2 in /  1021.9 hPa East 5.8 mph /  9.3 km/h 5.8 mph /  9.3 km/h 58 % 0 in /  0.0 mm
14:52 72.5 °F /  22.5 °C 56.8 °F /  13.8 °C 30.2 in /  1021.9 hPa East 6.9 mph /  11.1 km/h 6.9 mph /  11.1 km/h 58 % 0 in /  0.0 mm
14:57 72.3 °F /  22.4 °C 56.7 °F /  13.7 °C 30.2 in /  1021.9 hPa ESE 6.9 mph /  11.1 km/h 6.9 mph /  11.1 km/h 58 % 0 in /  0.0 mm
15:02 72.7 °F /  22.6 °C 57.6 °F /  14.2 °C 30.2 in /  1021.9 hPa ESE 5.8 mph /  9.3 km/h 5.8 mph /  9.3 km/h 59 % 0 in /  0.0 mm
15:07 73.2 °F /  22.9 °C 57.9 °F /  14.4 °C 30.2 in /  1021.9 hPa East 4.6 mph /  7.4 km/h 4.6 mph /  7.4 km/h 59 % 0 in /  0.0 mm
15:12 73.2 °F /  22.9 °C 57.9 °F /  14.4 °C 30.2 in /  1021.9 hPa ESE 8.1 mph /  13.0 km/h 8.1 mph /  13.0 km/h 59 % 0 in /  0.0 mm
15:17 72.9 °F /  22.7 °C 57.7 °F /  14.3 °C 30.2 in /  1021.9 hPa ESE 6.9 mph /  11.1 km/h 6.9 mph /  11.1 km/h 59 % 0 in /  0.0 mm
15:22 73.2 °F /  22.9 °C 57.6 °F /  14.2 °C 30.2 in /  1021.9 hPa ESE 5.8 mph /  9.3 km/h 5.8 mph /  9.3 km/h 58 % 0 in /  0.0 mm
15:27 74.3 °F /  23.5 °C 58.1 °F /  14.5 °C 30.2 in /  1021.9 hPa SW 8.1 mph /  13.0 km/h 8.1 mph /  13.0 km/h 57 % 0 in /  0.0 mm
15:32 76.8 °F /  24.9 °C 59.4 °F /  15.2 °C 30.2 in /  1021.9 hPa SSE 3.5 mph /  5.6 km/h 3.5 mph /  5.6 km/h 55 % 0 in /  0.0 mm
15:37 75.9 °F /  24.4 °C 57.6 °F /  14.2 °C 30.2 in /  1021.9 hPa SSE 3.5 mph /  5.6 km/h 3.5 mph /  5.6 km/h 53 % 0 in /  0.0 mm
15:42 76.6 °F /  24.8 °C 58.6 °F /  14.8 °C 30.2 in /  1021.9 hPa SW 6.9 mph /  11.1 km/h 6.9 mph /  11.1 km/h 54 % 0 in /  0.0 mm
15:47 77.5 °F /  25.3 °C 59.2 °F /  15.1 °C 30.2 in /  1020.9 hPa SW 3.5 mph /  5.6 km/h 3.5 mph /  5.6 km/h 53 % 0 in /  0.0 mm
15:52 77.2 °F /  25.1 °C 58.3 °F /  14.6 °C 30.2 in /  1020.9 hPa South 4.6 mph /  7.4 km/h 4.6 mph /  7.4 km/h 52 % 0 in /  0.0 mm
15:57 76.8 °F /  24.9 °C 58.5 °F /  14.7 °C 30.2 in /  1020.9 hPa SW 5.8 mph /  9.3 km/h 5.8 mph /  9.3 km/h 53 % 0 in /  0.0 mm
16:02 77.7 °F /  25.4 °C 58.6 °F /  14.8 °C 30.2 in /  1021.9 hPa South 5.8 mph /  9.3 km/h 5.8 mph /  9.3 km/h 52 % 0 in /  0.0 mm
16:07 77.2 °F /  25.1 °C 57.7 °F /  14.3 °C 30.2 in /  1021.9 hPa South 9.2 mph /  14.8 km/h 9.2 mph /  14.8 km/h 51 % 0 in /  0.0 mm
16:12 77.2 °F /  25.1 °C 57.7 °F /  14.3 °C 30.2 in /  1021.9 hPa West 8.1 mph /  13.0 km/h 8.1 mph /  13.0 km/h 51 % 0 in /  0.0 mm
16:17 76.3 °F /  24.6 °C 57.4 °F /  14.1 °C 30.2 in /  1021.9 hPa WSW 5.8 mph /  9.3 km/h 5.8 mph /  9.3 km/h 52 % 0 in /  0.0 mm
16:22 77 °F /  25.0 °C 57.6 °F /  14.2 °C 30.2 in /  1021.9 hPa South 6.9 mph /  11.1 km/h 6.9 mph /  11.1 km/h 51 % 0 in /  0.0 mm
16:27 77.2 °F /  25.1 °C 57.7 °F /  14.3 °C 30.2 in /  1021.9 hPa SW 8.1 mph /  13.0 km/h 8.1 mph /  13.0 km/h 51 % 0 in /  0.0 mm
16:32 77.5 °F /  25.3 °C 57.4 °F /  14.1 °C 30.2 in /  1020.9 hPa SW 6.9 mph /  11.1 km/h 6.9 mph /  11.1 km/h 50 % 0 in /  0.0 mm
16:37 77.5 °F /  25.3 °C 57.4 °F /  14.1 °C 30.2 in /  1020.9 hPa SSW 3.5 mph /  5.6 km/h 3.5 mph /  5.6 km/h 50 % 0 in /  0.0 mm
16:42 77.5 °F /  25.3 °C 57.4 °F /  14.1 °C 30.2 in /  1020.9 hPa SSW 12.7 mph /  20.4 km/h 12.7 mph /  20.4 km/h 50 % 0 in /  0.0 mm
16:47 77 °F /  25.0 °C 56.8 °F /  13.8 °C 30.2 in /  1020.9 hPa SW 8.1 mph /  13.0 km/h 8.1 mph /  13.0 km/h 50 % 0 in /  0.0 mm
16:52 77.5 °F /  25.3 °C 57.4 °F /  14.1 °C 30.2 in /  1020.9 hPa SW 5.8 mph /  9.3 km/h 5.8 mph /  9.3 km/h 50 % 0 in /  0.0 mm
16:57 77 °F /  25.0 °C 56.8 °F /  13.8 °C 30.2 in /  1020.9 hPa SW 10.4 mph /  16.7 km/h 10.4 mph /  16.7 km/h 50 % 0 in /  0.0 mm
17:02 77.4 °F /  25.2 °C 57.4 °F /  14.1 °C 30.2 in /  1020.9 hPa SSW 6.9 mph /  11.1 km/h 6.9 mph /  11.1 km/h 50 % 0 in /  0.0 mm
17:07 77.7 °F /  25.4 °C 57.6 °F /  14.2 °C 30.2 in /  1020.9 hPa SW 5.8 mph /  9.3 km/h 5.8 mph /  9.3 km/h 50 % 0 in /  0.0 mm
17:12 77 °F /  25.0 °C 56.8 °F /  13.8 °C 30.2 in /  1020.9 hPa WSW 9.2 mph /  14.8 km/h 9.2 mph /  14.8 km/h 50 % 0 in /  0.0 mm
17:17 77 °F /  25.0 °C 56.8 °F /  13.8 °C 30.2 in /  1020.9 hPa SW 8.1 mph /  13.0 km/h 8.1 mph /  13.0 km/h 50 % 0 in /  0.0 mm
17:22 77 °F /  25.0 °C 56.8 °F /  13.8 °C 30.2 in /  1020.9 hPa SSW 9.2 mph /  14.8 km/h 9.2 mph /  14.8 km/h 50 % 0 in /  0.0 mm
17:27 76.8 °F /  24.9 °C 57.4 °F /  14.1 °C 30.2 in /  1020.9 hPa WSW 5.8 mph /  9.3 km/h 5.8 mph /  9.3 km/h 51 % 0 in /  0.0 mm
17:32 77 °F /  25.0 °C 56.8 °F /  13.8 °C 30.2 in /  1020.9 hPa West 5.8 mph /  9.3 km/h 5.8 mph /  9.3 km/h 50 % 0 in /  0.0 mm
17:33 76.8 °F /  24.9 °C 57.4 °F /  14.1 °C 30.2 in /  1020.9 hPa SSW 6.2 mph /  10.0 km/h 6.2 mph /  10.0 km/h 51 % 0 in /  0.0 mm
17:38 76.5 °F /  24.7 °C 57 °F /  13.9 °C 30.2 in /  1020.9 hPa SSW 8.1 mph /  13.0 km/h 8.1 mph /  13.0 km/h 51 % 0 in /  0.0 mm
17:43 75.9 °F /  24.4 °C 56.5 °F /  13.6 °C 30.2 in /  1020.9 hPa WSW 8.1 mph /  13.0 km/h 8.1 mph /  13.0 km/h 51 % 0 in /  0.0 mm
17:48 75.9 °F /  24.4 °C 56.5 °F /  13.6 °C 30.1 in /  1019.9 hPa SW 5.8 mph /  9.3 km/h 5.8 mph /  9.3 km/h 51 % 0 in /  0.0 mm
17:53 75.7 °F /  24.3 °C 56.3 °F /  13.5 °C 30.1 in /  1019.9 hPa WSW 8.1 mph /  13.0 km/h 8.1 mph /  13.0 km/h 51 % 0 in /  0.0 mm
17:58 75.6 °F /  24.2 °C 56.7 °F /  13.7 °C 30.1 in /  1019.9 hPa SSW 10.4 mph /  16.7 km/h 10.4 mph /  16.7 km/h 52 % 0 in /  0.0 mm
18:03 75.4 °F /  24.1 °C 56.5 °F /  13.6 °C 30.1 in /  1019.9 hPa WSW 3.5 mph /  5.6 km/h 3.5 mph /  5.6 km/h 52 % 0 in /  0.0 mm
18:08 75.4 °F /  24.1 °C 56.5 °F /  13.6 °C 30.1 in /  1019.9 hPa West 7.1 mph /  11.4 km/h 7.1 mph /  11.4 km/h 52 % 0 in /  0.0 mm
18:13 75.2 °F /  24.0 °C 56.5 °F /  13.6 °C 30.1 in /  1019.9 hPa SW 8.1 mph /  13.0 km/h 8.1 mph /  13.0 km/h 52 % 0 in /  0.0 mm
18:18 74.8 °F /  23.8 °C 55.9 °F /  13.3 °C 30.1 in /  1019.9 hPa South 5.8 mph /  9.3 km/h 5.8 mph /  9.3 km/h 52 % 0 in /  0.0 mm
18:23 74.1 °F /  23.4 °C 55.4 °F /  13.0 °C 30.1 in /  1019.9 hPa SW 9.2 mph /  14.8 km/h 9.2 mph /  14.8 km/h 52 % 0 in /  0.0 mm
18:28 73.9 °F /  23.3 °C 55.2 °F /  12.9 °C 30.1 in /  1019.9 hPa SW 5.8 mph /  9.3 km/h 5.8 mph /  9.3 km/h 52 % 0 in /  0.0 mm
18:33 73.9 °F /  23.3 °C 55.2 °F /  12.9 °C 30.1 in /  1019.9 hPa SW 10.4 mph /  16.7 km/h 10.4 mph /  16.7 km/h 52 % 0 in /  0.0 mm
18:38 73.6 °F /  23.1 °C 55.4 °F /  13.0 °C 30.1 in /  1019.9 hPa WSW 4.9 mph /  7.9 km/h 4.9 mph /  7.9 km/h 53 % 0 in /  0.0 mm
18:43 73.4 °F /  23.0 °C 55.2 °F /  12.9 °C 30.1 in /  1019.9 hPa SSW 6.9 mph /  11.1 km/h 6.9 mph /  11.1 km/h 53 % 0 in /  0.0 mm
18:48 73 °F /  22.8 °C 55.4 °F /  13.0 °C 30.1 in /  1019.9 hPa SW 5.8 mph /  9.3 km/h 5.8 mph /  9.3 km/h 54 % 0 in /  0.0 mm
18:53 73 °F /  22.8 °C 55.4 °F /  13.0 °C 30.1 in /  1019.9 hPa SW 5.8 mph /  9.3 km/h 5.8 mph /  9.3 km/h 54 % 0 in /  0.0 mm
18:58 72.5 °F /  22.5 °C 54.9 °F /  12.7 °C 30.1 in /  1019.9 hPa WSW 8.5 mph /  13.7 km/h 8.5 mph /  13.7 km/h 54 % 0 in /  0.0 mm
19:03 72 °F /  22.2 °C 54.9 °F /  12.7 °C 30.2 in /  1020.9 hPa SSW 8.1 mph /  13.0 km/h 8.1 mph /  13.0 km/h 55 % 0 in /  0.0 mm
19:08 71.6 °F /  22.0 °C 54.7 °F /  12.6 °C 30.2 in /  1020.9 hPa South 5.9 mph /  9.5 km/h 5.9 mph /  9.5 km/h 55 % 0 in /  0.0 mm
19:13 71.4 °F /  21.9 °C 55.4 °F /  13.0 °C 30.2 in /  1020.9 hPa SW 9 mph /  14.5 km/h 9 mph /  14.5 km/h 57 % 0 in /  0.0 mm
19:18 70.9 °F /  21.6 °C 54.9 °F /  12.7 °C 30.2 in /  1020.9 hPa WSW 5.8 mph /  9.3 km/h 5.8 mph /  9.3 km/h 57 % 0 in /  0.0 mm
19:23 70.7 °F /  21.5 °C 55.2 °F /  12.9 °C 30.2 in /  1020.9 hPa SSE 3.5 mph /  5.6 km/h 3.5 mph /  5.6 km/h 58 % 0 in /  0.0 mm
19:28 70.5 °F /  21.4 °C 55 °F /  12.8 °C 30.2 in /  1020.9 hPa SSW 5.8 mph /  9.3 km/h 5.8 mph /  9.3 km/h 58 % 0 in /  0.0 mm
19:33 70 °F /  21.1 °C 55 °F /  12.8 °C 30.2 in /  1021.9 hPa SW 9.2 mph /  14.8 km/h 9.2 mph /  14.8 km/h 59 % 0 in /  0.0 mm
19:38 69.8 °F /  21.0 °C 55.2 °F /  12.9 °C 30.2 in /  1021.9 hPa SSW 8.1 mph /  13.0 km/h 8.1 mph /  13.0 km/h 60 % 0 in /  0.0 mm
19:43 69.6 °F /  20.9 °C 55.6 °F /  13.1 °C 30.2 in /  1021.9 hPa SW 5.8 mph /  9.3 km/h 5.8 mph /  9.3 km/h 61 % 0 in /  0.0 mm
19:48 69.3 °F /  20.7 °C 55.2 °F /  12.9 °C 30.2 in /  1020.9 hPa WSW 5.8 mph /  9.3 km/h 5.8 mph /  9.3 km/h 61 % 0 in /  0.0 mm
19:53 69.1 °F /  20.6 °C 55.6 °F /  13.1 °C 30.2 in /  1020.9 hPa SW 5.8 mph /  9.3 km/h 5.8 mph /  9.3 km/h 62 % 0 in /  0.0 mm
19:58 68.9 °F /  20.5 °C 55.2 °F /  12.9 °C 30.2 in /  1020.9 hPa WSW 4.6 mph /  7.4 km/h 4.6 mph /  7.4 km/h 62 % 0 in /  0.0 mm
20:03 68.7 °F /  20.4 °C 55.2 °F /  12.9 °C 30.2 in /  1021.9 hPa SSW 4.6 mph /  7.4 km/h 4.6 mph /  7.4 km/h 62 % 0 in /  0.0 mm
20:08 68.7 °F /  20.4 °C 55.6 °F /  13.1 °C 30.2 in /  1021.9 hPa SSW 3.5 mph /  5.6 km/h 3.5 mph /  5.6 km/h 63 % 0 in /  0.0 mm
20:13 68.4 °F /  20.2 °C 55.2 °F /  12.9 °C 30.2 in /  1021.9 hPa SW 5.8 mph /  9.3 km/h 5.8 mph /  9.3 km/h 63 % 0 in /  0.0 mm
20:18 68.2 °F /  20.1 °C 55.6 °F /  13.1 °C 30.2 in /  1021.9 hPa SW 4.6 mph /  7.4 km/h 4.6 mph /  7.4 km/h 64 % 0 in /  0.0 mm
20:23 68 °F /  20.0 °C 55.4 °F /  13.0 °C 30.2 in /  1021.9 hPa SW 4.3 mph /  6.9 km/h 4.3 mph /  6.9 km/h 64 % 0 in /  0.0 mm
20:28 68 °F /  20.0 °C 55.8 °F /  13.2 °C 30.2 in /  1021.9 hPa WSW 4.6 mph /  7.4 km/h 4.6 mph /  7.4 km/h 65 % 0 in /  0.0 mm
20:33 67.8 °F /  19.9 °C 55.9 °F /  13.3 °C 30.2 in /  1021.9 hPa SW 3.5 mph /  5.6 km/h 3.5 mph /  5.6 km/h 66 % 0 in /  0.0 mm
20:38 67.6 °F /  19.8 °C 55.9 °F /  13.3 °C 30.2 in /  1021.9 hPa SW 3.5 mph /  5.6 km/h 3.5 mph /  5.6 km/h 66 % 0 in /  0.0 mm
20:43 67.5 °F /  19.7 °C 56.1 °F /  13.4 °C 30.2 in /  1021.9 hPa SW 3.5 mph /  5.6 km/h 3.5 mph /  5.6 km/h 67 % 0 in /  0.0 mm
20:48 67.3 °F /  19.6 °C 55.9 °F /  13.3 °C 30.2 in /  1022.9 hPa SW 3.1 mph /  5.0 km/h 3.1 mph /  5.0 km/h 67 % 0 in /  0.0 mm
20:53 67.3 °F /  19.6 °C 55.9 °F /  13.3 °C 30.2 in /  1022.9 hPa WSW 2.4 mph /  3.9 km/h 2.4 mph /  3.9 km/h 67 % 0 in /  0.0 mm
20:58 67.1 °F /  19.5 °C 56.1 °F /  13.4 °C 30.2 in /  1022.9 hPa WSW 2.3 mph /  3.7 km/h 2.3 mph /  3.7 km/h 68 % 0 in /  0.0 mm
21:03 67.1 °F /  19.5 °C 56.1 °F /  13.4 °C 30.2 in /  1022.9 hPa SW 2.3 mph /  3.7 km/h 2.3 mph /  3.7 km/h 68 % 0 in /  0.0 mm
21:08 66.9 °F /  19.4 °C 56.5 °F /  13.6 °C 30.2 in /  1022.9 hPa SW 2.3 mph /  3.7 km/h 2.3 mph /  3.7 km/h 69 % 0 in /  0.0 mm
21:13 66.7 °F /  19.3 °C 56.1 °F /  13.4 °C 30.2 in /  1022.9 hPa WSW 2.3 mph /  3.7 km/h 2.3 mph /  3.7 km/h 69 % 0 in /  0.0 mm
21:18 66.7 °F /  19.3 °C 56.1 °F /  13.4 °C 30.2 in /  1022.9 hPa WSW 2.3 mph /  3.7 km/h 2.3 mph /  3.7 km/h 69 % 0 in /  0.0 mm
21:23 66.6 °F /  19.2 °C 56.5 °F /  13.6 °C 30.2 in /  1022.9 hPa SW 2.3 mph /  3.7 km/h 2.3 mph /  3.7 km/h 70 % 0 in /  0.0 mm
21:28 66.6 °F /  19.2 °C 56.5 °F /  13.6 °C 30.2 in /  1022.9 hPa SW 2.3 mph /  3.7 km/h 2.3 mph /  3.7 km/h 70 % 0 in /  0.0 mm
21:33 66.6 °F /  19.2 °C 56.5 °F /  13.6 °C 30.2 in /  1022.9 hPa WSW 1.4 mph /  2.3 km/h 1.4 mph /  2.3 km/h 70 % 0 in /  0.0 mm
21:38 66.4 °F /  19.1 °C 56.7 °F /  13.7 °C 30.2 in /  1022.9 hPa Calm     71 % 0 in /  0.0 mm
21:43 66.4 °F /  19.1 °C 56.7 °F /  13.7 °C 30.2 in /  1022.9 hPa Calm     71 % 0 in /  0.0 mm
21:48 66.2 °F /  19.0 °C 56.5 °F /  13.6 °C 30.2 in /  1023.9 hPa Calm     71 % 0 in /  0.0 mm
21:53 66 °F /  18.9 °C 56.7 °F /  13.7 °C 30.2 in /  1023.9 hPa Calm     72 % 0 in /  0.0 mm
21:58 65.8 °F /  18.8 °C 56.7 °F /  13.7 °C 30.2 in /  1023.9 hPa Calm     72 % 0 in /  0.0 mm
22:03 65.8 °F /  18.8 °C 56.8 °F /  13.8 °C 30.2 in /  1023.9 hPa Calm     73 % 0 in /  0.0 mm
22:08 65.8 °F /  18.8 °C 56.8 °F /  13.8 °C 30.2 in /  1023.9 hPa Calm     73 % 0 in /  0.0 mm
22:13 65.8 °F /  18.8 °C 56.8 °F /  13.8 °C 30.2 in /  1023.9 hPa Calm     73 % 0 in /  0.0 mm
22:18 65.7 °F /  18.7 °C 56.8 °F /  13.8 °C 30.2 in /  1023.9 hPa Calm     73 % 0 in /  0.0 mm
22:23 65.5 °F /  18.6 °C 57 °F /  13.9 °C 30.2 in /  1023.9 hPa Calm     74 % 0 in /  0.0 mm
22:28 65.5 °F /  18.6 °C 57 °F /  13.9 °C 30.2 in /  1023.9 hPa Calm     74 % 0 in /  0.0 mm
22:33 65.5 °F /  18.6 °C 57 °F /  13.9 °C 30.2 in /  1023.9 hPa Calm     74 % 0 in /  0.0 mm
22:38 65.3 °F /  18.5 °C 56.8 °F /  13.8 °C 30.2 in /  1023.9 hPa Calm     74 % 0 in /  0.0 mm
22:43 65.1 °F /  18.4 °C 56.7 °F /  13.7 °C 30.2 in /  1023.9 hPa Calm     74 % 0 in /  0.0 mm
22:48 65.1 °F /  18.4 °C 57 °F /  13.9 °C 30.2 in /  1023.9 hPa Calm     75 % 0 in /  0.0 mm
22:53 65.1 °F /  18.4 °C 57 °F /  13.9 °C 30.2 in /  1023.9 hPa Calm     75 % 0 in /  0.0 mm
22:58 64.9 °F /  18.3 °C 56.8 °F /  13.8 °C 30.2 in /  1023.9 hPa Calm     75 % 0 in /  0.0 mm
23:03 64.8 °F /  18.2 °C 57 °F /  13.9 °C 30.2 in /  1023.9 hPa Calm     76 % 0 in /  0.0 mm
23:08 64.8 °F /  18.2 °C 57 °F /  13.9 °C 30.2 in /  1023.9 hPa Calm     76 % 0 in /  0.0 mm
23:13 64.8 °F /  18.2 °C 57 °F /  13.9 °C 30.2 in /  1023.9 hPa Calm     76 % 0 in /  0.0 mm
23:18 64.8 °F /  18.2 °C 56.7 °F /  13.7 °C 30.2 in /  1023.9 hPa West 1.2 mph /  1.9 km/h 1.2 mph /  1.9 km/h 75 % 0 in /  0.0 mm
23:23 64.8 °F /  18.2 °C 57 °F /  13.9 °C 30.2 in /  1023.9 hPa Calm     76 % 0 in /  0.0 mm
23:28 64.8 °F /  18.2 °C 57 °F /  13.9 °C 30.2 in /  1023.9 hPa Calm     76 % 0 in /  0.0 mm
23:33 64.8 °F /  18.2 °C 57 °F /  13.9 °C 30.2 in /  1023.9 hPa Calm     76 % 0 in /  0.0 mm
23:38 64.6 °F /  18.1 °C 57.2 °F /  14.0 °C 30.2 in /  1023.9 hPa Calm     77 % 0 in /  0.0 mm
23:43 64.4 °F /  18.0 °C 57 °F /  13.9 °C 30.2 in /  1023.9 hPa Calm     77 % 0 in /  0.0 mm
23:48 64.4 °F /  18.0 °C 57 °F /  13.9 °C 30.2 in /  1023.9 hPa Calm     77 % 0 in /  0.0 mm
23:53 64 °F /  17.8 °C 56.7 °F /  13.7 °C 30.2 in /  1023.9 hPa Calm     77 % 0 in /  0.0 mm
23:58 64 °F /  17.8 °C 56.7 °F /  13.7 °C 30.2 in /  1023.9 hPa Calm     77 % 0 in /  0.0 mm
Meteo Sesrovires
Elogis d' Weather Underground - 3.5 mb

Guio original per  Jim McMurry - jmcmurry@mwt.net Adaptat per a la plantilla per  Wim van der Kuil - Leuven-Template.eu

Trobareu la nostra informacio del temps tambe a:

Weather Underground

AWEKAS